sensor_id;sensor_type;location;lat;lon;timestamp;pressure;altitude;pressure_sealevel;temperature;humidity
25722;BME280;13578;53.450;15.496;2023-07-29T00:00:47;99035.59;;;13.32;100.00
25722;BME280;13578;53.450;15.496;2023-07-29T00:03:47;99035.97;;;13.21;100.00
25722;BME280;13578;53.450;15.496;2023-07-29T00:06:48;99031.47;;;13.19;100.00
25722;BME280;13578;53.450;15.496;2023-07-29T00:09:48;99030.44;;;13.21;100.00
25722;BME280;13578;53.450;15.496;2023-07-29T00:12:49;99025.09;;;13.19;100.00
25722;BME280;13578;53.450;15.496;2023-07-29T00:15:49;99031.13;;;13.23;100.00
25722;BME280;13578;53.450;15.496;2023-07-29T00:18:51;99024.56;;;13.24;100.00
25722;BME280;13578;53.450;15.496;2023-07-29T00:21:51;99004.25;;;13.25;100.00
25722;BME280;13578;53.450;15.496;2023-07-29T00:24:53;99014.94;;;13.28;100.00
25722;BME280;13578;53.450;15.496;2023-07-29T00:27:58;99019.56;;;13.27;100.00
25722;BME280;13578;53.450;15.496;2023-07-29T00:30:59;99016.50;;;13.22;100.00
25722;BME280;13578;53.450;15.496;2023-07-29T00:33:59;99019.75;;;13.26;100.00
25722;BME280;13578;53.450;15.496;2023-07-29T00:37:00;99016.84;;;13.19;100.00
25722;BME280;13578;53.450;15.496;2023-07-29T00:40:01;99014.97;;;13.11;100.00
25722;BME280;13578;53.450;15.496;2023-07-29T00:43:01;99012.53;;;13.08;100.00
25722;BME280;13578;53.450;15.496;2023-07-29T00:46:02;99002.91;;;13.12;100.00
25722;BME280;13578;53.450;15.496;2023-07-29T00:49:03;99004.44;;;13.15;100.00
25722;BME280;13578;53.450;15.496;2023-07-29T00:52:04;99008.56;;;13.11;100.00
25722;BME280;13578;53.450;15.496;2023-07-29T00:55:05;99010.47;;;13.18;100.00
25722;BME280;13578;53.450;15.496;2023-07-29T00:58:07;99004.44;;;13.15;100.00
25722;BME280;13578;53.450;15.496;2023-07-29T01:01:08;98994.28;;;13.15;100.00
25722;BME280;13578;53.450;15.496;2023-07-29T01:04:08;99004.44;;;13.15;100.00
25722;BME280;13578;53.450;15.496;2023-07-29T01:07:23;99003.75;;;13.13;100.00
25722;BME280;13578;53.450;15.496;2023-07-29T01:10:30;98993.09;;;13.10;100.00
25722;BME280;13578;53.450;15.496;2023-07-29T01:13:40;98996.72;;;13.10;100.00
25722;BME280;13578;53.450;15.496;2023-07-29T01:16:52;98997.03;;;13.07;100.00
25722;BME280;13578;53.450;15.496;2023-07-29T01:20:00;98989.84;;;13.06;100.00
25722;BME280;13578;53.450;15.496;2023-07-29T01:23:04;98986.22;;;13.06;100.00
25722;BME280;13578;53.450;15.496;2023-07-29T01:26:04;98976.41;;;12.95;100.00
25722;BME280;13578;53.450;15.496;2023-07-29T01:29:05;98953.16;;;12.97;100.00
25722;BME280;13578;53.450;15.496;2023-07-29T01:32:14;98948.34;;;12.99;100.00
25722;BME280;13578;53.450;15.496;2023-07-29T01:35:28;98943.03;;;12.98;100.00
25722;BME280;13578;53.450;15.496;2023-07-29T01:38:38;98939.75;;;13.02;100.00
25722;BME280;13578;53.450;15.496;2023-07-29T01:41:41;98940.59;;;13.03;100.00
25722;BME280;13578;53.450;15.496;2023-07-29T01:44:43;98945.94;;;13.05;100.00
25722;BME280;13578;53.450;15.496;2023-07-29T01:47:44;98935.94;;;13.03;100.00
25722;BME280;13578;53.450;15.496;2023-07-29T01:50:44;98948.16;;;13.09;100.00
25722;BME280;13578;53.450;15.496;2023-07-29T01:53:45;98951.59;;;13.11;100.00
25722;BME280;13578;53.450;15.496;2023-07-29T01:56:46;98951.94;;;13.08;100.00
25722;BME280;13578;53.450;15.496;2023-07-29T01:59:46;98941.63;;;13.02;100.00
25722;BME280;13578;53.450;15.496;2023-07-29T02:02:48;98940.28;;;12.98;100.00
25722;BME280;13578;53.450;15.496;2023-07-29T02:05:48;98942.00;;;12.91;100.00
25722;BME280;13578;53.450;15.496;2023-07-29T02:08:49;98951.09;;;12.99;100.00
25722;BME280;13578;53.450;15.496;2023-07-29T02:11:49;98936.81;;;13.12;100.00
25722;BME280;13578;53.450;15.496;2023-07-29T02:14:50;98928.75;;;12.94;100.00
25722;BME280;13578;53.450;15.496;2023-07-29T02:17:50;98942.34;;;12.87;100.00
25722;BME280;13578;53.450;15.496;2023-07-29T02:20:52;98941.66;;;12.94;100.00
25722;BME280;13578;53.450;15.496;2023-07-29T02:23:52;98942.31;;;13.04;100.00
25722;BME280;13578;53.450;15.496;2023-07-29T02:26:53;98925.94;;;13.11;100.00
25722;BME280;13578;53.450;15.496;2023-07-29T02:29:54;98924.19;;;13.18;100.00
25722;BME280;13578;53.450;15.496;2023-07-29T02:32:54;98925.41;;;13.15;100.00
25722;BME280;13578;53.450;15.496;2023-07-29T02:35:55;98931.63;;;13.17;100.00
25722;BME280;13578;53.450;15.496;2023-07-29T02:38:55;98932.31;;;13.11;100.00
25722;BME280;13578;53.450;15.496;2023-07-29T02:41:56;98929.06;;;13.08;100.00
25722;BME280;13578;53.450;15.496;2023-07-29T02:44:58;98925.44;;;13.07;100.00
25722;BME280;13578;53.450;15.496;2023-07-29T02:47:59;98936.44;;;13.07;100.00
25722;BME280;13578;53.450;15.496;2023-07-29T02:50:59;98936.66;;;12.97;100.00
25722;BME280;13578;53.450;15.496;2023-07-29T02:54:00;98944.91;;;12.97;100.00
25722;BME280;13578;53.450;15.496;2023-07-29T02:57:01;98947.00;;;12.95;100.00
25722;BME280;13578;53.450;15.496;2023-07-29T03:00:01;98950.59;;;12.96;100.00
25722;BME280;13578;53.450;15.496;2023-07-29T03:03:02;98961.44;;;12.89;100.00
25722;BME280;13578;53.450;15.496;2023-07-29T03:06:05;98953.03;;;12.91;100.00
25722;BME280;13578;53.450;15.496;2023-07-29T03:09:06;98960.41;;;12.98;100.00
25722;BME280;13578;53.450;15.496;2023-07-29T03:12:06;98940.44;;;12.96;100.00
25722;BME280;13578;53.450;15.496;2023-07-29T03:15:07;98947.50;;;12.99;100.00
25722;BME280;13578;53.450;15.496;2023-07-29T03:18:08;98942.66;;;12.93;100.00
25722;BME280;13578;53.450;15.496;2023-07-29T03:21:09;98943.88;;;12.98;100.00
25722;BME280;13578;53.450;15.496;2023-07-29T03:24:10;98942.66;;;13.09;100.00
25722;BME280;13578;53.450;15.496;2023-07-29T03:27:11;98935.78;;;13.13;100.00
25722;BME280;13578;53.450;15.496;2023-07-29T03:30:11;98943.31;;;13.19;100.00
25722;BME280;13578;53.450;15.496;2023-07-29T03:33:12;98933.69;;;13.15;100.00
25722;BME280;13578;53.450;15.496;2023-07-29T03:36:12;98938.53;;;13.13;100.00
25722;BME280;13578;53.450;15.496;2023-07-29T03:39:14;98942.81;;;13.24;100.00
25722;BME280;13578;53.450;15.496;2023-07-29T03:42:15;98938.13;;;13.41;100.00
25722;BME280;13578;53.450;15.496;2023-07-29T03:45:16;98937.47;;;13.71;100.00
25722;BME280;13578;53.450;15.496;2023-07-29T03:48:16;98942.09;;;14.10;100.00
25722;BME280;13578;53.450;15.496;2023-07-29T03:51:17;98950.88;;;14.37;100.00
25722;BME280;13578;53.450;15.496;2023-07-29T03:54:18;98968.44;;;14.67;100.00
25722;BME280;13578;53.450;15.496;2023-07-29T03:57:18;98990.38;;;14.84;100.00
25722;BME280;13578;53.450;15.496;2023-07-29T04:00:19;99007.03;;;15.14;100.00
25722;BME280;13578;53.450;15.496;2023-07-29T04:03:20;99029.75;;;15.39;100.00
25722;BME280;13578;53.450;15.496;2023-07-29T04:06:20;99051.16;;;15.45;100.00
25722;BME280;13578;53.450;15.496;2023-07-29T04:09:21;99059.53;;;15.52;100.00
25722;BME280;13578;53.450;15.496;2023-07-29T04:12:22;99057.88;;;15.43;100.00
25722;BME280;13578;53.450;15.496;2023-07-29T04:15:23;99052.53;;;15.26;100.00
25722;BME280;13578;53.450;15.496;2023-07-29T04:18:24;99038.50;;;15.66;100.00
25722;BME280;13578;53.450;15.496;2023-07-29T04:21:24;99039.69;;;16.23;100.00
25722;BME280;13578;53.450;15.496;2023-07-29T04:24:25;99066.41;;;16.67;100.00
25722;BME280;13578;53.450;15.496;2023-07-29T04:27:26;99092.75;;;16.93;100.00
25722;BME280;13578;53.450;15.496;2023-07-29T04:30:26;99101.19;;;17.07;100.00
25722;BME280;13578;53.450;15.496;2023-07-29T04:33:28;99095.84;;;17.05;100.00
25722;BME280;13578;53.450;15.496;2023-07-29T04:36:29;99086.16;;;16.94;100.00
25722;BME280;13578;53.450;15.496;2023-07-29T04:39:30;99083.59;;;16.78;100.00
25722;BME280;13578;53.450;15.496;2023-07-29T04:42:30;99079.81;;;16.64;100.00
25722;BME280;13578;53.450;15.496;2023-07-29T04:45:31;99065.50;;;16.60;100.00
25722;BME280;13578;53.450;15.496;2023-07-29T04:48:31;99050.88;;;16.66;100.00
25722;BME280;13578;53.450;15.496;2023-07-29T04:51:32;99036.03;;;16.74;100.00
25722;BME280;13578;53.450;15.496;2023-07-29T04:54:33;99038.94;;;16.88;100.00
25722;BME280;13578;53.450;15.496;2023-07-29T04:57:33;99046.94;;;16.97;100.00
25722;BME280;13578;53.450;15.496;2023-07-29T05:00:34;99040.22;;;17.07;100.00
25722;BME280;13578;53.450;15.496;2023-07-29T05:03:35;99043.09;;;17.20;100.00
25722;BME280;13578;53.450;15.496;2023-07-29T05:06:35;99049.66;;;17.41;100.00
25722;BME280;13578;53.450;15.496;2023-07-29T05:09:36;99066.44;;;17.54;100.00
25722;BME280;13578;53.450;15.496;2023-07-29T05:12:36;99066.09;;;17.71;100.00
25722;BME280;13578;53.450;15.496;2023-07-29T05:15:37;99076.22;;;17.85;100.00
25722;BME280;13578;53.450;15.496;2023-07-29T05:18:38;99069.78;;;18.06;100.00
25722;BME280;13578;53.450;15.496;2023-07-29T05:21:39;99067.34;;;18.32;100.00
25722;BME280;13578;53.450;15.496;2023-07-29T05:24:39;99070.88;;;18.61;100.00
25722;BME280;13578;53.450;15.496;2023-07-29T05:27:40;99079.28;;;18.87;100.00
25722;BME280;13578;53.450;15.496;2023-07-29T05:30:40;99094.56;;;19.12;100.00
25722;BME280;13578;53.450;15.496;2023-07-29T05:33:41;99117.84;;;19.04;100.00
25722;BME280;13578;53.450;15.496;2023-07-29T05:36:42;99104.72;;;18.84;100.00
25722;BME280;13578;53.450;15.496;2023-07-29T05:39:42;99105.31;;;18.66;100.00
25722;BME280;13578;53.450;15.496;2023-07-29T05:42:43;99082.81;;;18.54;100.00
25722;BME280;13578;53.450;15.496;2023-07-29T05:45:45;99086.66;;;18.53;100.00
25722;BME280;13578;53.450;15.496;2023-07-29T05:48:46;99073.59;;;18.47;100.00
25722;BME280;13578;53.450;15.496;2023-07-29T05:51:46;99071.91;;;18.46;100.00
25722;BME280;13578;53.450;15.496;2023-07-29T05:54:47;99079.56;;;18.44;100.00
25722;BME280;13578;53.450;15.496;2023-07-29T05:57:47;99074.00;;;18.44;100.00
25722;BME280;13578;53.450;15.496;2023-07-29T06:00:48;99068.66;;;18.42;100.00
25722;BME280;13578;53.450;15.496;2023-07-29T06:03:49;99065.44;;;18.39;100.00
25722;BME280;13578;53.450;15.496;2023-07-29T06:06:49;99063.75;;;18.38;100.00
25722;BME280;13578;53.450;15.496;2023-07-29T06:09:50;99056.28;;;18.38;100.00
25722;BME280;13578;53.450;15.496;2023-07-29T06:12:50;99051.38;;;18.47;100.00
25722;BME280;13578;53.450;15.496;2023-07-29T06:15:51;99036.25;;;18.56;100.00
25722;BME280;13578;53.450;15.496;2023-07-29T06:18:52;99038.81;;;18.58;100.00
25722;BME280;13578;53.450;15.496;2023-07-29T06:21:55;99050.81;;;18.65;100.00
25722;BME280;13578;53.450;15.496;2023-07-29T06:24:56;99040.97;;;18.69;100.00
25722;BME280;13578;53.450;15.496;2023-07-29T06:27:56;99041.88;;;18.83;100.00
25722;BME280;13578;53.450;15.496;2023-07-29T06:30:58;99040.41;;;18.94;100.00
25722;BME280;13578;53.450;15.496;2023-07-29T06:33:59;99053.50;;;19.07;100.00
25722;BME280;13578;53.450;15.496;2023-07-29T06:36:59;99062.03;;;19.12;100.00
25722;BME280;13578;53.450;15.496;2023-07-29T06:40:00;99065.28;;;19.23;100.00
25722;BME280;13578;53.450;15.496;2023-07-29T06:43:01;99065.50;;;19.34;100.00
25722;BME280;13578;53.450;15.496;2023-07-29T06:46:01;99070.81;;;19.43;100.00
25722;BME280;13578;53.450;15.496;2023-07-29T06:49:02;99079.38;;;19.55;100.00
25722;BME280;13578;53.450;15.496;2023-07-29T06:52:03;99083.44;;;19.65;100.00
25722;BME280;13578;53.450;15.496;2023-07-29T06:55:04;99094.38;;;19.80;100.00
25722;BME280;13578;53.450;15.496;2023-07-29T06:58:04;99101.88;;;19.93;100.00
25722;BME280;13578;53.450;15.496;2023-07-29T07:01:05;99094.34;;;20.07;100.00
25722;BME280;13578;53.450;15.496;2023-07-29T07:04:05;99101.16;;;20.18;100.00
25722;BME280;13578;53.450;15.496;2023-07-29T07:07:06;99106.09;;;20.23;100.00
25722;BME280;13578;53.450;15.496;2023-07-29T07:10:07;99109.06;;;20.28;100.00
25722;BME280;13578;53.450;15.496;2023-07-29T07:13:07;99102.19;;;20.37;100.00
25722;BME280;13578;53.450;15.496;2023-07-29T07:16:08;99108.16;;;20.47;100.00
25722;BME280;13578;53.450;15.496;2023-07-29T07:19:09;99094.41;;;20.53;100.00
25722;BME280;13578;53.450;15.496;2023-07-29T07:22:09;99101.06;;;20.58;100.00
25722;BME280;13578;53.450;15.496;2023-07-29T07:25:10;99095.22;;;20.73;100.00
25722;BME280;13578;53.450;15.496;2023-07-29T07:28:10;99103.91;;;20.90;100.00
25722;BME280;13578;53.450;15.496;2023-07-29T07:31:11;99103.22;;;21.02;100.00
25722;BME280;13578;53.450;15.496;2023-07-29T07:34:11;99091.06;;;21.21;100.00
25722;BME280;13578;53.450;15.496;2023-07-29T07:37:12;99108.38;;;21.30;100.00
25722;BME280;13578;53.450;15.496;2023-07-29T07:40:13;99107.16;;;21.58;100.00
25722;BME280;13578;53.450;15.496;2023-07-29T07:43:13;99106.84;;;21.92;100.00
25722;BME280;13578;53.450;15.496;2023-07-29T07:46:14;99110.97;;;22.08;100.00
25722;BME280;13578;53.450;15.496;2023-07-29T07:49:14;99109.38;;;22.37;100.00
25722;BME280;13578;53.450;15.496;2023-07-29T07:52:15;99115.81;;;22.37;100.00
25722;BME280;13578;53.450;15.496;2023-07-29T07:55:15;99097.53;;;22.60;100.00
25722;BME280;13578;53.450;15.496;2023-07-29T07:58:16;99114.59;;;22.71;100.00
25722;BME280;13578;53.450;15.496;2023-07-29T08:01:17;99100.28;;;22.79;100.00
25722;BME280;13578;53.450;15.496;2023-07-29T08:04:17;99089.84;;;22.86;100.00
25722;BME280;13578;53.450;15.496;2023-07-29T08:07:18;99099.53;;;23.02;100.00
25722;BME280;13578;53.450;15.496;2023-07-29T08:10:19;99098.81;;;23.07;100.00
25722;BME280;13578;53.450;15.496;2023-07-29T08:13:20;99100.84;;;22.99;100.00
25722;BME280;13578;53.450;15.496;2023-07-29T08:16:20;99089.09;;;22.79;100.00
25722;BME280;13578;53.450;15.496;2023-07-29T08:19:21;99094.81;;;22.72;100.00
25722;BME280;13578;53.450;15.496;2023-07-29T08:22:22;99101.69;;;22.69;100.00
25722;BME280;13578;53.450;15.496;2023-07-29T08:25:22;99101.78;;;22.63;100.00
25722;BME280;13578;53.450;15.496;2023-07-29T08:28:23;99102.41;;;22.46;100.00
25722;BME280;13578;53.450;15.496;2023-07-29T08:31:24;99101.47;;;22.34;100.00
25722;BME280;13578;53.450;15.496;2023-07-29T08:34:25;99091.59;;;22.13;100.00
25722;BME280;13578;53.450;15.496;2023-07-29T08:37:25;99089.66;;;22.32;100.00
25722;BME280;13578;53.450;15.496;2023-07-29T08:40:29;99081.13;;;22.64;100.00
25722;BME280;13578;53.450;15.496;2023-07-29T08:43:31;99081.84;;;22.90;100.00
25722;BME280;13578;53.450;15.496;2023-07-29T08:46:32;99071.94;;;23.06;100.00
25722;BME280;13578;53.450;15.496;2023-07-29T08:49:34;99076.75;;;23.17;100.00
25722;BME280;13578;53.450;15.496;2023-07-29T08:52:34;99073.31;;;23.45;100.00
25722;BME280;13578;53.450;15.496;2023-07-29T08:55:36;99078.53;;;23.66;100.00
25722;BME280;13578;53.450;15.496;2023-07-29T08:58:37;99078.69;;;23.71;100.00
25722;BME280;13578;53.450;15.496;2023-07-29T09:01:39;99068.34;;;23.71;100.00
25722;BME280;13578;53.450;15.496;2023-07-29T09:04:40;99082.63;;;23.93;100.00
25722;BME280;13578;53.450;15.496;2023-07-29T09:07:41;99087.09;;;23.71;100.00
25722;BME280;13578;53.450;15.496;2023-07-29T09:10:42;99082.22;;;23.78;100.00
25722;BME280;13578;53.450;15.496;2023-07-29T09:13:43;99076.63;;;24.02;100.00
25722;BME280;13578;53.450;15.496;2023-07-29T09:16:44;99065.94;;;23.99;100.00
25722;BME280;13578;53.450;15.496;2023-07-29T09:19:50;99068.72;;;24.10;100.00
25722;BME280;13578;53.450;15.496;2023-07-29T09:22:51;99063.72;;;24.13;100.00
25722;BME280;13578;53.450;15.496;2023-07-29T09:26:02;99063.13;;;24.22;100.00
25722;BME280;13578;53.450;15.496;2023-07-29T09:29:03;99067.88;;;24.10;100.00
25722;BME280;13578;53.450;15.496;2023-07-29T09:32:21;99061.06;;;23.94;100.00
25722;BME280;13578;53.450;15.496;2023-07-29T09:35:22;99049.22;;;23.80;100.00
25722;BME280;13578;53.450;15.496;2023-07-29T09:38:29;99060.91;;;23.89;100.00
25722;BME280;13578;53.450;15.496;2023-07-29T09:41:29;99057.16;;;24.19;100.00
25722;BME280;13578;53.450;15.496;2023-07-29T09:44:36;99054.38;;;24.07;100.00
25722;BME280;13578;53.450;15.496;2023-07-29T09:47:36;99054.56;;;24.17;100.00
25722;BME280;13578;53.450;15.496;2023-07-29T09:50:37;99069.66;;;24.40;100.00
25722;BME280;13578;53.450;15.496;2023-07-29T09:53:46;99054.00;;;24.68;100.00
25722;BME280;13578;53.450;15.496;2023-07-29T09:56:47;99056.06;;;24.72;100.00
25722;BME280;13578;53.450;15.496;2023-07-29T09:59:54;99045.13;;;24.88;100.00
25722;BME280;13578;53.450;15.496;2023-07-29T10:02:55;99032.31;;;24.92;100.00
25722;BME280;13578;53.450;15.496;2023-07-29T10:06:00;99042.75;;;24.97;100.00
25722;BME280;13578;53.450;15.496;2023-07-29T10:09:01;99051.50;;;24.83;100.00
25722;BME280;13578;53.450;15.496;2023-07-29T10:12:03;99035.09;;;24.63;100.00
25722;BME280;13578;53.450;15.496;2023-07-29T10:15:06;99023.28;;;24.61;100.00
25722;BME280;13578;53.450;15.496;2023-07-29T10:18:07;99019.44;;;24.79;100.00
25722;BME280;13578;53.450;15.496;2023-07-29T10:21:08;99006.88;;;24.82;100.00
25722;BME280;13578;53.450;15.496;2023-07-29T10:24:14;99008.53;;;25.12;100.00
25722;BME280;13578;53.450;15.496;2023-07-29T10:27:17;98999.47;;;25.39;100.00
25722;BME280;13578;53.450;15.496;2023-07-29T10:30:19;99001.59;;;25.48;100.00
25722;BME280;13578;53.450;15.496;2023-07-29T10:33:20;98988.56;;;25.25;100.00
25722;BME280;13578;53.450;15.496;2023-07-29T10:36:21;98989.50;;;25.14;100.00
25722;BME280;13578;53.450;15.496;2023-07-29T10:39:21;98990.75;;;25.23;100.00
25722;BME280;13578;53.450;15.496;2023-07-29T10:42:24;98979.81;;;25.39;100.00
25722;BME280;13578;53.450;15.496;2023-07-29T10:45:25;98968.22;;;25.52;100.00
25722;BME280;13578;53.450;15.496;2023-07-29T10:51:37;98969.72;;;25.77;100.00
25722;BME280;13578;53.450;15.496;2023-07-29T10:54:45;98971.09;;;25.74;100.00
25722;BME280;13578;53.450;15.496;2023-07-29T10:57:47;98951.72;;;25.56;100.00
25722;BME280;13578;53.450;15.496;2023-07-29T11:00:49;98936.06;;;25.60;100.00
25722;BME280;13578;53.450;15.496;2023-07-29T11:04:22;98958.53;;;25.60;100.00
25722;BME280;13578;53.450;15.496;2023-07-29T11:07:25;98936.22;;;25.53;100.00
25722;BME280;13578;53.450;15.496;2023-07-29T11:10:28;98929.41;;;25.66;100.00
25722;BME280;13578;53.450;15.496;2023-07-29T11:13:30;98933.94;;;25.89;100.00
25722;BME280;13578;53.450;15.496;2023-07-29T11:16:31;98916.84;;;25.74;100.00
25722;BME280;13578;53.450;15.496;2023-07-29T11:19:32;98918.78;;;25.68;100.00
25722;BME280;13578;53.450;15.496;2023-07-29T11:22:35;98932.75;;;25.85;100.00
25722;BME280;13578;53.450;15.496;2023-07-29T11:25:36;98904.75;;;26.12;100.00
25722;BME280;13578;53.450;15.496;2023-07-29T11:28:39;98917.06;;;26.34;100.00
25722;BME280;13578;53.450;15.496;2023-07-29T11:31:40;98893.38;;;26.24;100.00
25722;BME280;13578;53.450;15.496;2023-07-29T11:34:41;98883.88;;;25.86;100.00
25722;BME280;13578;53.450;15.496;2023-07-29T11:37:47;98896.28;;;25.68;100.00
25722;BME280;13578;53.450;15.496;2023-07-29T11:40:55;98892.06;;;25.48;100.00
25722;BME280;13578;53.450;15.496;2023-07-29T11:43:56;98882.47;;;25.27;100.00
25722;BME280;13578;53.450;15.496;2023-07-29T11:46:57;98878.16;;;25.02;100.00
25722;BME280;13578;53.450;15.496;2023-07-29T11:50:01;98889.03;;;24.99;100.00
25722;BME280;13578;53.450;15.496;2023-07-29T11:53:02;98890.06;;;24.76;100.00
25722;BME280;13578;53.450;15.496;2023-07-29T11:56:03;98885.66;;;24.51;100.00
25722;BME280;13578;53.450;15.496;2023-07-29T11:59:04;98913.81;;;23.86;100.00
25722;BME280;13578;53.450;15.496;2023-07-29T12:02:08;98913.38;;;23.18;100.00
25722;BME280;13578;53.450;15.496;2023-07-29T12:05:10;98924.94;;;22.67;100.00
25722;BME280;13578;53.450;15.496;2023-07-29T12:08:12;98911.19;;;22.35;100.00
25722;BME280;13578;53.450;15.496;2023-07-29T12:11:14;98882.38;;;22.04;100.00
25722;BME280;13578;53.450;15.496;2023-07-29T12:14:16;98843.97;;;21.88;100.00
25722;BME280;13578;53.450;15.496;2023-07-29T12:17:18;98833.44;;;21.71;100.00
25722;BME280;13578;53.450;15.496;2023-07-29T12:20:20;98833.06;;;21.68;100.00
25722;BME280;13578;53.450;15.496;2023-07-29T12:23:24;98853.56;;;21.55;100.00
25722;BME280;13578;53.450;15.496;2023-07-29T12:26:32;98844.78;;;21.14;100.00
25722;BME280;13578;53.450;15.496;2023-07-29T12:29:32;98863.03;;;20.91;100.00
25722;BME280;13578;53.450;15.496;2023-07-29T12:32:44;98831.91;;;20.69;100.00
25722;BME280;13578;53.450;15.496;2023-07-29T12:35:45;98785.34;;;20.51;100.00
25722;BME280;13578;53.450;15.496;2023-07-29T12:38:46;98767.59;;;20.45;100.00
25722;BME280;13578;53.450;15.496;2023-07-29T12:41:48;98753.25;;;20.42;100.00
25722;BME280;13578;53.450;15.496;2023-07-29T12:44:49;98721.53;;;20.43;100.00
25722;BME280;13578;53.450;15.496;2023-07-29T12:47:50;98706.53;;;20.44;100.00
25722;BME280;13578;53.450;15.496;2023-07-29T12:50:51;98686.44;;;20.35;100.00
25722;BME280;13578;53.450;15.496;2023-07-29T12:53:52;98649.31;;;20.23;100.00
25722;BME280;13578;53.450;15.496;2023-07-29T12:56:52;98647.59;;;20.22;100.00
25722;BME280;13578;53.450;15.496;2023-07-29T12:59:53;98685.22;;;20.31;100.00
25722;BME280;13578;53.450;15.496;2023-07-29T13:02:53;98701.28;;;20.10;100.00
25722;BME280;13578;53.450;15.496;2023-07-29T13:05:54;98660.63;;;20.46;100.00
25722;BME280;13578;53.450;15.496;2023-07-29T13:08:55;98650.75;;;20.88;100.00
25722;BME280;13578;53.450;15.496;2023-07-29T13:11:55;98647.84;;;21.13;100.00
25722;BME280;13578;53.450;15.496;2023-07-29T13:14:56;98656.38;;;21.49;100.00
25722;BME280;13578;53.450;15.496;2023-07-29T13:17:56;98667.41;;;21.74;100.00
25722;BME280;13578;53.450;15.496;2023-07-29T13:20:57;98675.78;;;21.86;100.00
25722;BME280;13578;53.450;15.496;2023-07-29T13:23:58;98676.03;;;21.96;100.00
25722;BME280;13578;53.450;15.496;2023-07-29T13:26:58;98668.66;;;22.14;100.00
25722;BME280;13578;53.450;15.496;2023-07-29T13:29:59;98651.56;;;22.22;100.00
25722;BME280;13578;53.450;15.496;2023-07-29T13:32:59;98666.97;;;22.13;100.00
25722;BME280;13578;53.450;15.496;2023-07-29T13:36:01;98657.59;;;22.07;100.00
25722;BME280;13578;53.450;15.496;2023-07-29T13:39:04;98682.00;;;21.88;100.00
25722;BME280;13578;53.450;15.496;2023-07-29T13:42:05;98726.00;;;21.44;100.00
25722;BME280;13578;53.450;15.496;2023-07-29T13:45:06;98802.09;;;20.95;100.00
25722;BME280;13578;53.450;15.496;2023-07-29T13:48:07;98802.53;;;20.41;100.00
25722;BME280;13578;53.450;15.496;2023-07-29T13:51:07;98834.81;;;19.40;100.00
25722;BME280;13578;53.450;15.496;2023-07-29T13:54:08;98832.59;;;18.96;100.00
25722;BME280;13578;53.450;15.496;2023-07-29T13:57:09;98813.78;;;18.78;100.00
25722;BME280;13578;53.450;15.496;2023-07-29T14:00:10;98773.38;;;18.62;100.00
25722;BME280;13578;53.450;15.496;2023-07-29T14:03:11;98745.84;;;18.54;100.00
25722;BME280;13578;53.450;15.496;2023-07-29T14:06:12;98778.53;;;18.52;100.00
25722;BME280;13578;53.450;15.496;2023-07-29T14:09:12;98781.09;;;18.27;100.00
25722;BME280;13578;53.450;15.496;2023-07-29T14:12:13;98762.31;;;18.22;100.00
25722;BME280;13578;53.450;15.496;2023-07-29T14:15:15;98748.22;;;18.10;100.00
25722;BME280;13578;53.450;15.496;2023-07-29T14:18:16;98741.16;;;18.14;100.00
25722;BME280;13578;53.450;15.496;2023-07-29T14:21:17;98733.69;;;18.08;100.00
25722;BME280;13578;53.450;15.496;2023-07-29T14:24:18;98725.34;;;18.08;100.00
25722;BME280;13578;53.450;15.496;2023-07-29T14:27:20;98731.56;;;18.10;100.00
25722;BME280;13578;53.450;15.496;2023-07-29T14:30:20;98734.75;;;18.07;100.00
25722;BME280;13578;53.450;15.496;2023-07-29T14:33:21;98731.31;;;18.12;100.00
25722;BME280;13578;53.450;15.496;2023-07-29T14:36:21;98770.41;;;18.10;100.00
25722;BME280;13578;53.450;15.496;2023-07-29T14:39:22;98764.00;;;18.03;100.00
25722;BME280;13578;53.450;15.496;2023-07-29T14:42:23;98752.25;;;18.01;100.00
25722;BME280;13578;53.450;15.496;2023-07-29T14:45:23;98731.78;;;17.95;100.00
25722;BME280;13578;53.450;15.496;2023-07-29T14:48:24;98723.00;;;17.98;100.00
25722;BME280;13578;53.450;15.496;2023-07-29T14:51:25;98717.22;;;18.00;100.00
25722;BME280;13578;53.450;15.496;2023-07-29T14:54:25;98723.03;;;18.05;100.00
25722;BME280;13578;53.450;15.496;2023-07-29T14:57:26;98713.19;;;18.02;100.00
25722;BME280;13578;53.450;15.496;2023-07-29T15:00:26;98704.84;;;18.09;100.00
25722;BME280;13578;53.450;15.496;2023-07-29T15:03:27;98682.44;;;18.17;100.00
25722;BME280;13578;53.450;15.496;2023-07-29T15:06:28;98675.16;;;18.23;100.00
25722;BME280;13578;53.450;15.496;2023-07-29T15:09:29;98672.16;;;18.24;100.00
25722;BME280;13578;53.450;15.496;2023-07-29T15:12:29;98678.16;;;18.28;100.00
25722;BME280;13578;53.450;15.496;2023-07-29T15:15:30;98680.06;;;18.34;100.00
25722;BME280;13578;53.450;15.496;2023-07-29T15:18:30;98674.91;;;18.38;100.00
25722;BME280;13578;53.450;15.496;2023-07-29T15:21:33;98676.59;;;18.52;100.00
25722;BME280;13578;53.450;15.496;2023-07-29T15:24:34;98681.47;;;18.70;100.00
25722;BME280;13578;53.450;15.496;2023-07-29T15:27:35;98681.81;;;18.87;100.00
25722;BME280;13578;53.450;15.496;2023-07-29T15:30:36;98698.69;;;19.06;100.00
25722;BME280;13578;53.450;15.496;2023-07-29T15:33:37;98702.22;;;19.27;100.00
25722;BME280;13578;53.450;15.496;2023-07-29T15:36:38;98713.06;;;19.42;100.00
25722;BME280;13578;53.450;15.496;2023-07-29T15:39:38;98733.31;;;19.56;100.00